Time;durP1;ratioP1;P1;durP2;ratioP2;P2;SDS_P1;SDS_P2;PMS_P1;PMS_P2;Temp;Humidity;BMP_temperature;BMP_pressure;BME280_temperature;BME280_humidity;BME280_pressure;Samples;Min_cycle;Max_cycle;Signal;HPM_P1;HPM_P2
2021/06/14 00:01:25;;;;;;;6.38;4.95;;;18.70;99.90;;;;;;6215773;23;19996;-83
2021/06/14 00:03:51;;;;;;;4.38;3.95;;;18.60;99.90;;;;;;6216168;23;20335;-83
2021/06/14 00:06:16;;;;;;;8.95;3.40;;;18.50;99.90;;;;;;6215722;23;20035;-82
2021/06/14 00:08:43;;;;;;;6.53;3.83;;;18.50;99.90;;;;;;6215355;23;20008;-83
2021/06/14 00:11:10;;;;;;;6.00;4.07;;;18.40;99.90;;;;;;6215795;23;19997;-83
2021/06/14 00:13:36;;;;;;;4.20;3.90;;;18.50;99.90;;;;;;6213658;23;20104;-83
2021/06/14 00:16:03;;;;;;;7.45;3.95;;;18.60;99.90;;;;;;6214967;23;20370;-83
2021/06/14 00:18:29;;;;;;;10.07;3.75;;;18.60;99.90;;;;;;6214021;23;20001;-82
2021/06/14 00:21:00;;;;;;;4.50;3.90;;;18.70;99.90;;;;;;6215390;23;20001;-83
2021/06/14 00:23:29;;;;;;;3.60;3.30;;;18.70;99.90;;;;;;6215355;23;20004;-82
2021/06/14 00:25:57;;;;;;;3.83;3.33;;;18.40;99.90;;;;;;6215702;23;20051;-83
2021/06/14 00:28:23;;;;;;;5.82;3.88;;;18.20;99.90;;;;;;6213478;23;20466;-83
2021/06/14 00:30:51;;;;;;;5.60;3.78;;;18.20;99.90;;;;;;6216016;23;20001;-83
2021/06/14 00:33:17;;;;;;;5.40;4.80;;;18.10;99.90;;;;;;6215305;23;20075;-83
2021/06/14 00:35:44;;;;;;;4.50;4.07;;;18.20;99.90;;;;;;6215189;23;19997;-83
2021/06/14 00:38:12;;;;;;;4.97;3.85;;;18.30;99.90;;;;;;6213962;23;20000;-83
2021/06/14 00:40:38;;;;;;;4.30;3.90;;;18.30;99.90;;;;;;6214745;23;20004;-83
2021/06/14 00:43:06;;;;;;;5.05;3.70;;;18.30;99.90;;;;;;6213872;23;20012;-83
2021/06/14 00:45:33;;;;;;;4.88;3.60;;;18.20;99.90;;;;;;6214893;23;20441;-83
2021/06/14 00:48:01;;;;;;;4.65;4.28;;;18.10;99.90;;;;;;6215273;23;20051;-83
2021/06/14 00:50:44;;;;;;;7.30;4.07;;;18.10;99.90;;;;;;6214222;23;20347;-83
2021/06/14 00:53:26;;;;;;;4.70;3.70;;;18.10;99.90;;;;;;6215196;23;20005;-83
2021/06/14 00:55:52;;;;;;;7.85;4.50;;;18.00;99.90;;;;;;6215404;23;20451;-83
2021/06/14 00:58:18;;;;;;;5.00;3.83;;;18.20;99.90;;;;;;6214937;23;20001;-82
2021/06/14 01:00:45;;;;;;;3.83;3.28;;;18.20;99.90;;;;;;6215185;23;20001;-82
2021/06/14 01:03:11;;;;;;;4.68;3.08;;;18.10;99.90;;;;;;6215435;23;20001;-83
2021/06/14 01:05:42;;;;;;;3.50;3.08;;;18.00;99.90;;;;;;6214053;23;20003;-83
2021/06/14 01:08:09;;;;;;;6.47;4.25;;;17.90;99.90;;;;;;6215134;23;20375;-83
2021/06/14 01:10:36;;;;;;;9.68;4.13;;;17.90;99.90;;;;;;6215309;23;19997;-83
2021/06/14 01:13:08;;;;;;;4.57;3.45;;;17.70;99.90;;;;;;6214968;23;20462;-82
2021/06/14 01:15:58;;;;;;;4.35;3.75;;;17.80;99.90;;;;;;6214340;23;19996;-83
2021/06/14 01:18:38;;;;;;;4.13;3.72;;;17.80;99.90;;;;;;6214974;23;19996;-82
2021/06/14 01:21:21;;;;;;;4.72;3.60;;;17.80;99.90;;;;;;6214615;23;20001;-83
2021/06/14 01:24:14;;;;;;;4.28;3.90;;;17.80;99.90;;;;;;6214877;23;20000;-83
2021/06/14 01:27:11;;;;;;;6.35;3.50;;;17.80;99.90;;;;;;6213131;23;20008;-83
2021/06/14 01:29:38;;;;;;;4.75;3.58;;;17.70;99.90;;;;;;6214396;23;20003;-83
2021/06/14 01:32:07;;;;;;;5.68;4.10;;;17.70;99.90;;;;;;6214549;23;19997;-83
2021/06/14 01:34:36;;;;;;;4.00;3.70;;;17.70;99.90;;;;;;6214250;23;19993;-83
2021/06/14 01:37:03;;;;;;;5.07;3.80;;;17.70;99.90;;;;;;6215144;23;20075;-83
2021/06/14 01:39:34;;;;;;;5.65;3.50;;;17.70;99.90;;;;;;6214949;23;19996;-82
2021/06/14 01:42:00;;;;;;;9.32;3.90;;;17.50;99.90;;;;;;6214778;23;19997;-82
2021/06/14 01:44:30;;;;;;;8.07;4.07;;;17.40;99.90;;;;;;6214472;23;20000;-83
2021/06/14 01:46:59;;;;;;;4.22;3.83;;;17.40;99.90;;;;;;6214331;23;20001;-82
2021/06/14 01:49:26;;;;;;;4.32;3.92;;;17.40;99.90;;;;;;6214282;23;20096;-82
2021/06/14 01:51:52;;;;;;;6.57;3.92;;;17.40;99.90;;;;;;6212963;23;20059;-82
2021/06/14 01:54:18;;;;;;;6.63;4.10;;;17.50;99.90;;;;;;6214894;23;20421;-83
2021/06/14 01:56:50;;;;;;;5.57;3.70;;;17.60;99.90;;;;;;6214520;23;20368;-83
2021/06/14 01:59:23;;;;;;;7.50;3.95;;;17.50;99.90;;;;;;6214992;23;20436;-83
2021/06/14 02:01:52;;;;;;;3.83;3.50;;;17.40;99.90;;;;;;6214799;23;20339;-83
2021/06/14 02:04:18;;;;;;;5.97;3.50;;;17.20;99.90;;;;;;6214387;23;19996;-82
2021/06/14 02:06:46;;;;;;;6.22;3.30;;;17.20;99.90;;;;;;6214731;23;20004;-82
2021/06/14 02:09:16;;;;;;;6.60;4.18;;;17.30;99.90;;;;;;6214605;23;20057;-82
2021/06/14 02:11:47;;;;;;;4.03;3.63;;;17.20;99.90;;;;;;6213980;23;20439;-82
2021/06/14 02:14:16;;;;;;;6.90;3.20;;;17.00;99.90;;;;;;6214526;23;20000;-82
2021/06/14 02:16:44;;;;;;;11.05;4.18;;;17.00;99.90;;;;;;6214296;23;19993;-82
2021/06/14 02:19:10;;;;;;;3.60;3.30;;;17.10;99.90;;;;;;6214310;23;20001;-82
2021/06/14 02:21:36;;;;;;;8.55;3.90;;;17.10;99.90;;;;;;6214568;23;20008;-82
2021/06/14 02:24:02;;;;;;;5.82;3.58;;;17.10;99.90;;;;;;6213056;23;20004;-82
2021/06/14 02:26:28;;;;;;;4.65;3.83;;;17.10;99.90;;;;;;6214895;23;20000;-82
2021/06/14 02:28:54;;;;;;;5.18;4.22;;;17.00;99.90;;;;;;6214294;23;20000;-82
2021/06/14 02:31:20;;;;;;;5.63;4.20;;;16.80;99.90;;;;;;6214463;23;19993;-82
2021/06/14 02:33:46;;;;;;;4.40;3.50;;;16.80;99.90;;;;;;6214148;23;20044;-82
2021/06/14 02:36:13;;;;;;;3.78;3.47;;;16.70;99.90;;;;;;6214602;23;20003;-82
2021/06/14 02:38:40;;;;;;;6.68;4.20;;;16.70;99.90;;;;;;6213003;23;20007;-82
2021/06/14 02:41:06;;;;;;;3.78;3.42;;;16.80;99.90;;;;;;6214074;23;20131;-82
2021/06/14 02:43:33;;;;;;;4.47;4.10;;;16.80;99.90;;;;;;6214223;23;20008;-82
2021/06/14 02:45:59;;;;;;;6.57;3.72;;;16.80;99.90;;;;;;6214133;23;20001;-82
2021/06/14 02:48:27;;;;;;;4.07;3.55;;;16.80;99.90;;;;;;6212652;23;20000;-82
2021/06/14 02:50:54;;;;;;;5.20;4.40;;;16.60;99.90;;;;;;6213357;23;20028;-82
2021/06/14 02:53:23;;;;;;;4.82;3.42;;;16.60;99.90;;;;;;6212692;23;20463;-82
2021/06/14 02:55:52;;;;;;;5.90;3.83;;;16.60;99.90;;;;;;6214751;23;20059;-82
2021/06/14 02:58:28;;;;;;;3.60;3.40;;;16.70;99.90;;;;;;6214214;23;20058;-82
2021/06/14 03:00:54;;;;;;;7.75;3.60;;;16.70;99.90;;;;;;6215843;23;20504;-82
2021/06/14 03:03:21;;;;;;;4.38;3.97;;;16.60;99.90;;;;;;6216316;23;19997;-82
2021/06/14 03:05:47;;;;;;;4.63;3.47;;;16.60;99.90;;;;;;6216608;23;20051;-82
2021/06/14 03:08:16;;;;;;;7.32;4.43;;;16.40;99.90;;;;;;6216164;23;20379;-83
2021/06/14 03:10:43;;;;;;;4.53;3.88;;;16.50;99.90;;;;;;6216025;23;20000;-83
2021/06/14 03:13:10;;;;;;;4.07;3.33;;;16.60;99.90;;;;;;6216249;23;19997;-83
2021/06/14 03:15:37;;;;;;;3.75;3.45;;;16.50;99.90;;;;;;6215687;23;20068;-83
2021/06/14 03:18:04;;;;;;;4.10;3.60;;;16.40;99.90;;;;;;6215823;23;20057;-83
2021/06/14 03:20:32;;;;;;;4.80;3.65;;;16.40;99.90;;;;;;6216387;23;20526;-83
2021/06/14 03:22:58;;;;;;;7.90;4.30;;;16.20;99.90;;;;;;6216158;23;19997;-83
2021/06/14 03:25:24;;;;;;;6.10;4.35;;;16.30;99.90;;;;;;6216238;23;20076;-83
2021/06/14 03:27:51;;;;;;;6.88;4.88;;;16.40;99.90;;;;;;6215538;23;20024;-83
2021/06/14 03:30:20;;;;;;;8.20;4.03;;;16.40;99.90;;;;;;6216049;23;19996;-82
2021/06/14 03:32:47;;;;;;;4.70;4.30;;;15.90;99.90;;;;;;6215951;23;19997;-82
2021/06/14 03:35:17;;;;;;;6.47;4.00;;;15.80;99.90;;;;;;6215728;23;20104;-82
2021/06/14 03:37:44;;;;;;;4.28;3.88;;;16.00;99.90;;;;;;6216346;23;20462;-82
2021/06/14 03:40:12;;;;;;;6.90;3.47;;;16.20;99.90;;;;;;6216133;23;20019;-82
2021/06/14 03:42:38;;;;;;;4.47;3.55;;;16.30;99.90;;;;;;6215873;23;19996;-82
2021/06/14 03:45:06;;;;;;;5.72;3.63;;;16.30;99.90;;;;;;6215321;23;20051;-82
2021/06/14 03:47:32;;;;;;;4.38;3.47;;;16.10;99.90;;;;;;6215953;23;20043;-82
2021/06/14 03:49:57;;;;;;;7.20;3.42;;;16.10;99.90;;;;;;6215516;23;19997;-82
2021/06/14 03:52:23;;;;;;;5.63;3.70;;;16.00;99.90;;;;;;6215767;23;20067;-82
2021/06/14 03:54:49;;;;;;;5.28;3.92;;;16.00;99.90;;;;;;6215909;23;20450;-82
2021/06/14 03:57:15;;;;;;;5.22;3.75;;;16.00;99.90;;;;;;6215402;23;20454;-82
2021/06/14 03:59:41;;;;;;;5.88;3.58;;;16.10;99.90;;;;;;6214519;23;20001;-82
2021/06/14 04:02:06;;;;;;;7.03;3.72;;;16.00;99.90;;;;;;6215745;23;19996;-82
2021/06/14 04:04:48;;;;;;;6.32;3.22;;;15.80;99.90;;;;;;6216509;23;20341;-82
2021/06/14 04:07:14;;;;;;;6.50;3.72;;;15.80;99.90;;;;;;6215902;23;20484;-82
2021/06/14 04:09:42;;;;;;;4.90;4.50;;;15.90;99.90;;;;;;6216135;23;20008;-82
2021/06/14 04:12:08;;;;;;;4.15;3.70;;;15.90;99.90;;;;;;6215098;23;20335;-82
2021/06/14 04:14:34;;;;;;;5.03;4.18;;;16.10;99.90;;;;;;6215421;23;20142;-82
2021/06/14 04:17:00;;;;;;;4.45;3.92;;;16.00;99.90;;;;;;6216087;23;20443;-82
2021/06/14 04:19:26;;;;;;;5.45;3.53;;;16.00;99.90;;;;;;6215043;23;20008;-82
2021/06/14 04:21:52;;;;;;;5.60;3.63;;;15.90;99.90;;;;;;6215115;23;20003;-82
2021/06/14 04:24:17;;;;;;;5.10;3.63;;;15.90;99.90;;;;;;6214761;23;20004;-82
2021/06/14 04:26:43;;;;;;;7.03;3.80;;;15.90;99.90;;;;;;6215453;23;20001;-82
2021/06/14 04:29:09;;;;;;;7.55;4.18;;;15.90;99.90;;;;;;6214313;23;20001;-82
2021/06/14 04:31:35;;;;;;;5.15;3.85;;;16.00;99.90;;;;;;6214506;23;20000;-79
2021/06/14 04:34:00;;;;;;;3.75;3.28;;;16.10;99.90;;;;;;6215015;23;20050;-79
2021/06/14 04:36:26;;;;;;;3.85;3.55;;;16.00;99.90;;;;;;6215148;23;20131;-79
2021/06/14 04:38:52;;;;;;;6.80;3.75;;;16.00;99.90;;;;;;6215455;23;20008;-79
2021/06/14 04:41:18;;;;;;;6.18;3.97;;;16.00;99.90;;;;;;6215443;23;20023;-79
2021/06/14 04:43:43;;;;;;;5.43;4.05;;;16.10;99.90;;;;;;6213764;23;20001;-79
2021/06/14 04:46:09;;;;;;;4.18;3.55;;;16.10;99.90;;;;;;6215490;23;20406;-79
2021/06/14 04:48:35;;;;;;;8.63;4.22;;;16.10;99.90;;;;;;6215108;23;20001;-79
2021/06/14 04:51:01;;;;;;;8.52;3.47;;;16.10;99.90;;;;;;6214785;23;20016;-79
2021/06/14 04:53:27;;;;;;;7.43;3.70;;;16.00;99.90;;;;;;6213241;23;20004;-79
2021/06/14 04:55:53;;;;;;;6.45;3.80;;;15.80;99.90;;;;;;6213940;23;20005;-81
2021/06/14 04:58:19;;;;;;;8.23;3.70;;;16.00;99.90;;;;;;6213300;23;19997;-81
2021/06/14 05:00:45;;;;;;;6.47;3.97;;;15.90;99.90;;;;;;6214009;23;20070;-82
2021/06/14 05:03:11;;;;;;;4.68;4.28;;;16.00;99.90;;;;;;6214359;23;19996;-82
2021/06/14 05:05:37;;;;;;;5.97;4.63;;;16.10;99.90;;;;;;6213907;23;20008;-82
2021/06/14 05:08:03;;;;;;;6.10;4.43;;;16.20;99.90;;;;;;6213876;23;20004;-82
2021/06/14 05:10:29;;;;;;;7.38;4.20;;;16.30;99.90;;;;;;6213710;23;19997;-82
2021/06/14 05:12:55;;;;;;;6.03;4.05;;;16.40;99.90;;;;;;6213684;23;20520;-82
2021/06/14 05:15:21;;;;;;;8.15;4.22;;;16.50;99.90;;;;;;6212629;23;20000;-82
2021/06/14 05:17:47;;;;;;;7.38;3.45;;;16.50;99.90;;;;;;6213737;23;20004;-82
2021/06/14 05:20:17;;;;;;;5.40;4.50;;;16.60;99.90;;;;;;6213776;23;20001;-82
2021/06/14 05:22:43;;;;;;;7.35;3.92;;;16.70;99.90;;;;;;6213921;23;20003;-82
2021/06/14 05:25:11;;;;;;;6.22;3.88;;;16.60;99.90;;;;;;6213934;23;20000;-82
2021/06/14 05:27:37;;;;;;;4.20;3.85;;;16.70;99.90;;;;;;6213386;23;20004;-82
2021/06/14 05:30:03;;;;;;;5.32;3.63;;;16.80;99.90;;;;;;6213435;23;20001;-82
2021/06/14 05:32:29;;;;;;;5.47;3.42;;;16.80;99.90;;;;;;6213455;23;20020;-82
2021/06/14 05:34:55;;;;;;;7.85;3.85;;;16.90;99.90;;;;;;6212173;23;19996;-82
2021/06/14 05:37:20;;;;;;;5.75;4.30;;;17.00;99.90;;;;;;6213619;23;20004;-82
2021/06/14 05:39:46;;;;;;;6.75;4.22;;;17.10;99.90;;;;;;6213681;23;20007;-82
2021/06/14 05:42:12;;;;;;;6.78;4.35;;;17.20;99.90;;;;;;6211580;23;20011;-82
2021/06/14 05:44:38;;;;;;;7.00;4.13;;;17.40;99.90;;;;;;6213413;23;20007;-82
2021/06/14 05:47:04;;;;;;;5.95;4.15;;;17.50;99.90;;;;;;6213734;23;20023;-82
2021/06/14 05:49:29;;;;;;;4.80;4.40;;;17.50;99.90;;;;;;6214317;23;20000;-82
2021/06/14 05:51:55;;;;;;;4.65;4.25;;;17.60;99.90;;;;;;6215058;23;20008;-82
2021/06/14 05:54:21;;;;;;;6.53;3.50;;;17.60;99.90;;;;;;6215024;23;20068;-82
2021/06/14 05:56:47;;;;;;;9.27;7.22;;;17.70;99.90;;;;;;6214394;23;19997;-82
2021/06/14 05:59:13;;;;;;;10.02;5.43;;;17.90;99.90;;;;;;6214627;23;20015;-82
2021/06/14 06:01:39;;;;;;;7.40;5.13;;;17.90;99.90;;;;;;6214751;23;20026;-82
2021/06/14 06:04:04;;;;;;;10.00;7.50;;;18.00;99.90;;;;;;6214403;23;20024;-82
2021/06/14 06:06:30;;;;;;;34.47;26.58;;;18.00;99.90;;;;;;6214844;23;20339;-82
2021/06/14 06:08:56;;;;;;;19.77;15.85;;;18.10;99.90;;;;;;6214302;23;20489;-79
2021/06/14 06:11:21;;;;;;;15.73;10.35;;;18.20;99.90;;;;;;6214314;23;19997;-79
2021/06/14 06:13:48;;;;;;;9.07;7.72;;;18.20;99.90;;;;;;6213659;23;20003;-79
2021/06/14 06:16:14;;;;;;;6.90;6.25;;;18.20;99.90;;;;;;6214453;23;19997;-79
2021/06/14 06:18:39;;;;;;;5.88;5.05;;;18.20;99.90;;;;;;6212989;23;20342;-81
2021/06/14 06:21:05;;;;;;;10.20;5.63;;;18.30;99.90;;;;;;6214249;23;20000;-81
2021/06/14 06:23:31;;;;;;;5.57;5.07;;;18.30;99.90;;;;;;6213858;23;20005;-81
2021/06/14 06:25:57;;;;;;;6.22;4.55;;;18.50;99.90;;;;;;6214127;23;20000;-80
2021/06/14 06:28:23;;;;;;;7.82;4.75;;;18.50;99.90;;;;;;6214591;23;20074;-81
2021/06/14 06:30:49;;;;;;;4.80;4.35;;;18.70;99.90;;;;;;6214407;23;20024;-81
2021/06/14 06:33:15;;;;;;;4.43;4.00;;;18.70;99.90;;;;;;6216758;23;20000;-81
2021/06/14 06:35:41;;;;;;;13.07;5.13;;;18.80;99.90;;;;;;6216292;23;19997;-79
2021/06/14 06:38:07;;;;;;;10.10;4.45;;;19.00;99.90;;;;;;6215551;23;20072;-79
2021/06/14 06:40:33;;;;;;;4.88;4.03;;;19.10;99.90;;;;;;6214949;23;20562;-79
2021/06/14 06:42:58;;;;;;;4.60;4.20;;;19.20;99.90;;;;;;6216708;23;20003;-79
2021/06/14 06:45:25;;;;;;;4.47;4.07;;;19.40;99.90;;;;;;6216813;23;20064;-79
2021/06/14 06:47:51;;;;;;;5.97;4.68;;;19.50;99.90;;;;;;6216478;23;19997;-79
2021/06/14 06:50:19;;;;;;;5.38;4.25;;;19.70;99.90;;;;;;6216806;23;19993;-79
2021/06/14 06:52:45;;;;;;;4.53;3.95;;;19.80;99.90;;;;;;6216080;23;20058;-79
2021/06/14 06:55:13;;;;;;;6.38;4.45;;;19.90;99.90;;;;;;6216801;23;19999;-79
2021/06/14 06:57:40;;;;;;;5.22;4.82;;;20.10;99.90;;;;;;6216486;23;19997;-79
2021/06/14 07:00:25;;;;;;;4.57;4.18;;;20.20;99.90;;;;;;6216546;23;20001;-79
2021/06/14 07:02:51;;;;;;;20.73;6.20;;;20.40;99.90;;;;;;6216586;23;20023;-79
2021/06/14 07:05:17;;;;;;;6.10;4.00;;;20.50;99.90;;;;;;6216635;23;20447;-79
2021/06/14 07:07:43;;;;;;;5.68;3.95;;;20.60;99.90;;;;;;6216094;23;20000;-79
2021/06/14 07:10:10;;;;;;;7.88;3.95;;;20.70;99.90;;;;;;6216388;23;20005;-79
2021/06/14 07:12:40;;;;;;;7.68;4.60;;;20.80;99.90;;;;;;6216416;23;20067;-79
2021/06/14 07:15:13;;;;;;;4.20;3.80;;;21.00;99.90;;;;;;6216546;23;20308;-79
2021/06/14 07:17:44;;;;;;;4.57;4.13;;;21.20;99.90;;;;;;6216436;23;20008;-79
2021/06/14 07:20:11;;;;;;;4.30;3.88;;;21.40;99.90;;;;;;6216615;23;20071;-79
2021/06/14 07:22:38;;;;;;;5.40;3.58;;;21.60;99.90;;;;;;6216130;23;20023;-79
2021/06/14 07:25:06;;;;;;;4.25;3.85;;;21.80;99.90;;;;;;6216466;23;20000;-79
2021/06/14 07:27:33;;;;;;;4.38;4.05;;;22.00;99.90;;;;;;6216345;23;20024;-79
2021/06/14 07:30:00;;;;;;;3.90;3.58;;;22.10;99.90;;;;;;6215946;23;20312;-79
2021/06/14 07:32:26;;;;;;;6.97;4.03;;;22.40;99.90;;;;;;6216231;23;19993;-79
2021/06/14 07:34:52;;;;;;;4.30;3.85;;;22.60;99.90;;;;;;6216134;23;20054;-79
2021/06/14 07:37:20;;;;;;;7.45;3.83;;;22.70;99.90;;;;;;6214346;23;19997;-80
2021/06/14 07:39:46;;;;;;;6.38;3.65;;;22.80;99.90;;;;;;6216071;23;20007;-80
2021/06/14 07:42:13;;;;;;;3.60;3.25;;;23.10;99.90;;;;;;6215892;23;20409;-80
2021/06/14 07:44:39;;;;;;;3.78;3.47;;;23.30;99.90;;;;;;6214526;23;20528;-80
2021/06/14 07:47:05;;;;;;;4.00;3.60;;;23.40;99.90;;;;;;6216105;23;19997;-80
2021/06/14 07:49:31;;;;;;;4.45;4.03;;;23.60;99.90;;;;;;6215874;23;20008;-80
2021/06/14 07:51:57;;;;;;;4.40;4.00;;;23.90;99.90;;;;;;6215381;23;20083;-80
2021/06/14 07:54:22;;;;;;;5.20;4.70;;;24.00;99.90;;;;;;6216056;23;20004;-80
2021/06/14 07:56:49;;;;;;;4.25;3.95;;;24.30;99.90;;;;;;6215792;23;20054;-80
2021/06/14 07:59:15;;;;;;;4.47;4.15;;;24.40;99.90;;;;;;6215946;23;20024;-80
2021/06/14 08:01:41;;;;;;;6.82;3.92;;;24.50;99.90;;;;;;6216384;23;20001;-80
2021/06/14 08:04:07;;;;;;;4.68;4.03;;;24.50;99.90;;;;;;6215873;23;20001;-80
2021/06/14 08:06:33;;;;;;;3.78;3.47;;;24.80;99.90;;;;;;6215741;23;20031;-80
2021/06/14 08:09:00;;;;;;;3.92;3.50;;;24.90;99.90;;;;;;6215413;23;20000;-80
2021/06/14 08:11:27;;;;;;;16.73;3.85;;;25.10;99.90;;;;;;6215886;23;20001;-80
2021/06/14 08:13:53;;;;;;;16.55;4.72;;;25.30;99.90;;;;;;6215820;23;20001;-80
2021/06/14 08:16:19;;;;;;;5.68;3.90;;;25.50;99.90;;;;;;6215935;23;20381;-80
2021/06/14 08:26:53;;;;;;;4.60;3.75;;;25.90;99.90;;;;;;6215660;23;20362;-80
2021/06/14 08:29:19;;;;;;;7.60;3.78;;;25.90;99.90;;;;;;6215502;23;20447;-81
2021/06/14 08:31:45;;;;;;;5.03;3.60;;;25.90;99.90;;;;;;6215744;23;20003;-80
2021/06/14 08:34:11;;;;;;;12.23;4.20;;;25.80;99.90;;;;;;6215124;23;19993;-80
2021/06/14 08:36:40;;;;;;;6.43;3.83;;;25.70;99.90;;;;;;6214077;23;20058;-80
2021/06/14 08:39:11;;;;;;;4.07;3.67;;;25.70;99.90;;;;;;6215387;23;19996;-80
2021/06/14 08:41:38;;;;;;;5.30;3.97;;;25.80;99.90;;;;;;6215600;23;20004;-80
2021/06/14 08:44:05;;;;;;;5.47;3.90;;;25.70;99.90;;;;;;6215335;23;20000;-80
2021/06/14 08:46:34;;;;;;;5.93;3.88;;;25.80;99.90;;;;;;6215599;23;19997;-80
2021/06/14 08:49:00;;;;;;;4.65;4.25;;;26.10;99.90;;;;;;6214897;23;19997;-80
2021/06/14 08:51:27;;;;;;;5.30;4.40;;;26.30;99.90;;;;;;6215307;23;20003;-80
2021/06/14 08:53:52;;;;;;;4.20;3.90;;;26.60;99.90;;;;;;6215078;23;20072;-80
2021/06/14 08:56:24;;;;;;;6.28;3.72;;;26.80;99.90;;;;;;6213790;23;20001;-81
2021/06/14 08:58:52;;;;;;;8.27;4.63;;;26.90;99.90;;;;;;6215514;23;19997;-80
2021/06/14 09:01:18;;;;;;;70.03;7.75;;;27.10;99.90;;;;;;6215284;23;20003;-81
2021/06/14 09:03:44;;;;;;;6.03;4.10;;;27.20;99.90;;;;;;6215249;23;20008;-80
2021/06/14 09:06:10;;;;;;;7.72;4.35;;;27.30;99.90;;;;;;6215208;23;20316;-80
2021/06/14 09:08:36;;;;;;;4.93;3.58;;;27.40;99.90;;;;;;6215294;23;20001;-80
2021/06/14 09:11:03;;;;;;;4.10;3.80;;;27.30;99.90;;;;;;6215209;23;20004;-81
2021/06/14 09:13:33;;;;;;;4.57;3.75;;;27.50;99.90;;;;;;6215292;23;20458;-81
2021/06/14 09:16:06;;;;;;;5.57;4.28;;;27.70;99.90;;;;;;6215088;23;20522;-80
2021/06/14 09:18:32;;;;;;;5.50;4.10;;;27.80;99.90;;;;;;6214990;23;20496;-80
2021/06/14 09:21:04;;;;;;;7.45;4.57;;;27.90;99.90;;;;;;6215187;23;19997;-80
2021/06/14 09:23:51;;;;;;;4.15;3.75;;;28.00;99.90;;;;;;6215103;23;20005;-81
2021/06/14 09:26:43;;;;;;;4.75;4.35;;;28.70;99.90;;;;;;6215078;23;20080;-81
2021/06/14 09:29:26;;;;;;;5.28;4.18;;;28.90;99.90;;;;;;6201543;23;20008;-81
2021/06/14 09:31:58;;;;;;;5.10;4.43;;;29.30;99.90;;;;;;6215344;23;20504;-81
2021/06/14 09:34:53;;;;;;;4.43;4.03;;;29.00;99.90;;;;;;6214784;23;20399;-81
2021/06/14 09:37:20;;;;;;;5.70;4.47;;;29.20;99.90;;;;;;6211813;23;20350;-81
2021/06/14 09:39:48;;;;;;;4.35;3.92;;;29.80;99.90;;;;;;6213579;23;20005;-81
2021/06/14 09:42:23;;;;;;;5.03;3.60;;;29.80;99.90;;;;;;6214823;23;20028;-80
2021/06/14 09:44:51;;;;;;;3.33;3.08;;;30.00;99.90;;;;;;6214930;23;20075;-81
2021/06/14 09:47:18;;;;;;;5.38;3.78;;;30.30;99.90;;;;;;6214515;23;20446;-81
2021/06/14 09:49:58;;;;;;;8.95;3.35;;;30.10;99.90;;;;;;6214986;23;20051;-81
2021/06/14 09:52:24;;;;;;;23.67;3.67;;;30.40;99.90;;;;;;6214705;23;20005;-81
2021/06/14 09:54:51;;;;;;;4.85;3.38;;;30.40;98.40;;;;;;6214832;23;19997;-81
2021/06/14 09:57:28;;;;;;;3.20;2.80;;;30.30;98.90;;;;;;6214689;23;20000;-81
2021/06/14 10:00:05;;;;;;;3.22;3.03;;;30.00;98.40;;;;;;6215076;23;19996;-81
2021/06/14 10:02:35;;;;;;;3.00;2.80;;;29.80;96.60;;;;;;6214589;23;19997;-81
2021/06/14 10:05:01;;;;;;;4.03;3.28;;;30.30;95.80;;;;;;6215007;23;19997;-81
2021/06/14 10:07:27;;;;;;;5.93;3.08;;;30.50;98.10;;;;;;6214643;23;20008;-81
2021/06/14 10:09:54;;;;;;;6.43;2.80;;;30.20;92.30;;;;;;6214759;23;20386;-81
2021/06/14 10:12:27;;;;;;;4.30;2.55;;;29.90;90.90;;;;;;6214644;23;20068;-81
2021/06/14 10:15:04;;;;;;;2.90;2.70;;;30.30;90.10;;;;;;6214750;23;20005;-81
2021/06/14 10:17:41;;;;;;;8.88;3.05;;;30.50;91.00;;;;;;6214289;23;20517;-81
2021/06/14 10:20:21;;;;;;;2.83;2.63;;;30.90;90.40;;;;;;6214462;23;20374;-81
2021/06/14 10:22:47;;;;;;;;;;;30.90;85.70;;;;;;6215212;23;20450;-81
2021/06/14 10:25:15;;;;;;;3.63;2.85;;;32.30;83.00;;;;;;6214774;23;19904;-81
2021/06/14 10:27:41;;;;;;;3.17;2.90;;;35.70;72.30;;;;;;6214843;23;20029;-81
2021/06/14 10:30:09;;;;;;;6.43;3.25;;;38.40;65.50;;;;;;6214124;23;20001;-81
2021/06/14 10:32:37;;;;;;;5.15;3.20;;;39.30;60.20;;;;;;6214663;23;20390;-81
2021/06/14 10:35:04;;;;;;;3.28;3.08;;;39.10;57.70;;;;;;6214801;23;20029;-81
2021/06/14 10:37:33;;;;;;;13.25;3.30;;;39.50;56.70;;;;;;6214536;23;20069;-81
2021/06/14 10:40:00;;;;;;;4.53;3.42;;;40.80;55.60;;;;;;6214735;23;20027;-81
2021/06/14 10:42:26;;;;;;;3.72;3.08;;;41.80;52.80;;;;;;6214367;23;20439;-81
2021/06/14 10:44:52;;;;;;;2.88;2.67;;;42.50;53.30;;;;;;6214080;23;20462;-82
2021/06/14 10:47:19;;;;;;;6.15;2.90;;;42.90;52.00;;;;;;6214560;23;19997;-82
2021/06/14 10:49:47;;;;;;;4.72;3.00;;;42.10;49.50;;;;;;6214639;23;20000;-82
2021/06/14 10:52:13;;;;;;;12.65;4.00;;;41.00;49.20;;;;;;6214063;23;20043;-82
2021/06/14 10:54:44;;;;;;;3.03;2.80;;;41.00;50.00;;;;;;6214662;23;19993;-82
2021/06/14 10:57:12;;;;;;;3.13;2.92;;;42.40;50.20;;;;;;6214662;23;20000;-82
2021/06/14 10:59:45;;;;;;;3.15;2.95;;;43.50;46.70;;;;;;6214137;23;19993;-82
2021/06/14 11:02:13;;;;;;;4.18;2.75;;;42.80;47.40;;;;;;6214380;23;19993;-82
2021/06/14 11:04:39;;;;;;;4.22;3.40;;;42.50;46.00;;;;;;6214742;23;20427;-82
2021/06/14 11:07:05;;;;;;;5.32;3.15;;;42.50;46.10;;;;;;6214585;23;19997;-82
2021/06/14 11:09:45;;;;;;;22.73;5.38;;;42.70;46.40;;;;;;6214279;23;20012;-83
2021/06/14 11:12:23;;;;;;;5.88;3.55;;;43.20;46.40;;;;;;6214068;23;19993;-82
2021/06/14 11:14:49;;;;;;;3.00;2.80;;;43.90;45.60;;;;;;6214136;23;20313;-82
2021/06/14 11:17:31;;;;;;;3.53;3.25;;;43.60;44.20;;;;;;6214451;23;20096;-83
2021/06/14 11:20:00;;;;;;;3.42;3.13;;;44.00;46.00;;;;;;6216556;23;19997;-83
2021/06/14 11:22:42;;;;;;;3.57;3.33;;;44.10;41.60;;;;;;6216438;23;19997;-83
2021/06/14 11:25:16;;;;;;;4.25;3.10;;;44.70;43.40;;;;;;6214669;23;20028;-83
2021/06/14 11:27:42;;;;;;;4.15;3.50;;;44.80;44.60;;;;;;6216447;23;20006;-83
2021/06/14 11:30:24;;;;;;;4.15;3.42;;;45.50;44.80;;;;;;6215716;23;20490;-84
2021/06/14 11:32:50;;;;;;;3.13;2.90;;;44.70;42.50;;;;;;6216200;23;20001;-83
2021/06/14 11:35:17;;;;;;;7.20;3.30;;;44.30;43.30;;;;;;6216401;23;20027;-82
2021/06/14 11:37:46;;;;;;;3.53;3.20;;;43.70;43.10;;;;;;6216250;23;19997;-81
2021/06/14 11:40:14;;;;;;;;;;;43.60;43.90;;;;;;6216576;23;20024;-81
2021/06/14 11:42:51;;;;;;;7.97;4.10;;;44.90;44.10;;;;;;6214155;23;20294;-81
2021/06/14 11:45:27;;;;;;;4.35;3.97;;;45.30;45.60;;;;;;6216159;23;20375;-81
2021/06/14 11:47:53;;;;;;;5.35;3.90;;;46.00;43.90;;;;;;6216163;23;20011;-81
2021/06/14 11:50:24;;;;;;;4.28;3.20;;;43.30;41.20;;;;;;6215949;23;20004;-80
2021/06/14 11:53:04;;;;;;;4.63;3.95;;;41.50;44.80;;;;;;6215900;23;20031;-80
2021/06/14 11:55:36;;;;;;;3.85;3.65;;;42.30;45.40;;;;;;6216003;23;20339;-80
2021/06/14 11:58:06;;;;;;;3.72;3.42;;;44.70;44.30;;;;;;6215510;23;20000;-80
2021/06/14 12:00:38;;;;;;;3.58;3.25;;;45.60;43.10;;;;;;6215955;23;20038;-80
2021/06/14 12:03:18;;;;;;;5.35;3.65;;;44.20;42.90;;;;;;6216161;23;20068;-80
2021/06/14 12:05:45;;;;;;;6.25;3.50;;;44.20;43.70;;;;;;6215983;23;19997;-80
2021/06/14 12:08:15;;;;;;;4.20;3.80;;;44.20;42.60;;;;;;6215780;23;20016;-80
2021/06/14 12:10:40;;;;;;;4.18;3.78;;;42.50;43.60;;;;;;6216098;23;20019;-80
2021/06/14 12:13:10;;;;;;;5.45;3.80;;;44.40;44.30;;;;;;6215459;23;20000;-80
2021/06/14 12:15:36;;;;;;;7.32;3.92;;;46.10;44.40;;;;;;6215644;23;20039;-80
2021/06/14 12:18:02;;;;;;;3.90;3.60;;;46.90;42.30;;;;;;6215830;23;20021;-80
2021/06/14 12:20:35;;;;;;;5.45;4.00;;;46.20;41.90;;;;;;6215717;23;20000;-80
2021/06/14 12:23:03;;;;;;;4.20;3.90;;;46.90;43.70;;;;;;6215862;23;20001;-80
2021/06/14 12:25:31;;;;;;;4.72;4.20;;;47.30;40.70;;;;;;6215649;23;20339;-80
2021/06/14 12:28:05;;;;;;;4.82;3.75;;;45.10;41.60;;;;;;6215207;23;19996;-80
2021/06/14 12:30:31;;;;;;;6.30;4.32;;;45.90;45.00;;;;;;6215327;23;20008;-80
2021/06/14 12:32:57;;;;;;;6.25;4.35;;;46.90;41.40;;;;;;6215516;23;20022;-80
2021/06/14 12:35:24;;;;;;;5.28;4.00;;;46.30;42.80;;;;;;6215698;23;20008;-80
2021/06/14 12:37:51;;;;;;;7.03;3.55;;;45.20;44.00;;;;;;6215767;23;20519;-80
2021/06/14 12:40:25;;;;;;;6.93;3.95;;;44.80;40.10;;;;;;6215460;23;20343;-80
2021/06/14 12:43:04;;;;;;;4.22;3.92;;;43.20;43.20;;;;;;6215119;23;20505;-80
2021/06/14 12:45:30;;;;;;;6.30;4.10;;;44.30;43.30;;;;;;6213666;23;20004;-80
2021/06/14 12:48:00;;;;;;;7.68;4.43;;;45.30;41.50;;;;;;6215491;23;19997;-80
2021/06/14 12:50:27;;;;;;;5.22;4.28;;;45.20;43.20;;;;;;6217515;23;20004;-80
2021/06/14 12:52:54;;;;;;;7.38;4.80;;;46.90;42.50;;;;;;6213683;23;20466;-80
2021/06/14 12:55:25;;;;;;;6.25;4.18;;;46.40;40.60;;;;;;6215019;23;19997;-80
2021/06/14 12:57:52;;;;;;;4.20;3.83;;;46.00;39.60;;;;;;6215301;23;19996;-80
2021/06/14 13:00:20;;;;;;;4.97;4.30;;;45.80;40.10;;;;;;6215277;23;20005;-80